createdAt,value
2023-03-12T00:02:06.518Z,4.36
2023-03-12T00:05:14.990Z,4.39
2023-03-12T00:08:12.739Z,4.43
2023-03-12T00:11:21.476Z,4.48
2023-03-12T00:14:33.220Z,4.54
2023-03-12T00:17:41.878Z,4.59
2023-03-12T00:20:50.662Z,4.64
2023-03-12T00:24:00.510Z,4.69
2023-03-12T00:27:09.007Z,4.72
2023-03-12T00:29:40.229Z,4.74
2023-03-12T00:32:20.541Z,4.77
2023-03-12T00:34:58.682Z,4.80
2023-03-12T00:38:00.171Z,4.83
2023-03-12T00:40:51.690Z,4.88
2023-03-12T00:44:00.149Z,4.93
2023-03-12T00:47:08.700Z,5.00
2023-03-12T00:50:10.155Z,5.08
2023-03-12T00:53:18.571Z,5.13
2023-03-12T00:56:15.534Z,5.18
2023-03-12T00:59:23.986Z,5.21
2023-03-12T01:02:19.993Z,5.25
2023-03-12T01:05:28.347Z,5.28
2023-03-12T01:08:39.717Z,5.32
2023-03-12T01:11:48.305Z,5.38
2023-03-12T01:14:56.755Z,5.42
2023-03-12T01:18:05.384Z,5.46
2023-03-12T01:21:07.927Z,5.50
2023-03-12T01:24:16.335Z,5.57
2023-03-12T01:27:07.212Z,5.61
2023-03-12T01:30:16.323Z,5.66
2023-03-12T01:33:13.341Z,5.71
2023-03-12T01:36:11.496Z,5.77
2023-03-12T01:39:19.821Z,5.85
2023-03-12T01:42:28.372Z,5.90
2023-03-12T01:45:18.183Z,5.94
2023-03-12T01:48:17.561Z,5.97
2023-03-12T01:51:25.989Z,6.00
2023-03-12T01:54:34.606Z,6.04
2023-03-12T01:57:43.416Z,6.09
2023-03-12T02:00:54.621Z,6.11
2023-03-12T02:03:55.773Z,6.13
2023-03-12T02:07:13.530Z,6.14
2023-03-12T02:10:21.772Z,6.18
2023-03-12T02:13:20.057Z,6.22
2023-03-12T02:16:28.660Z,6.23
2023-03-12T02:19:30.115Z,6.24
2023-03-12T02:22:38.652Z,6.29
2023-03-12T02:25:56.441Z,6.31
2023-03-12T02:28:46.002Z,6.33
2023-03-12T02:31:54.563Z,6.34
2023-03-12T02:35:02.822Z,6.38
2023-03-12T02:38:12.564Z,6.43
2023-03-12T02:41:23.836Z,6.48
2023-03-12T02:44:32.572Z,6.52
2023-03-12T02:47:04.278Z,6.57
2023-03-12T02:49:33.811Z,6.62
2023-03-12T02:52:22.096Z,6.68
2023-03-12T02:55:12.824Z,6.71
2023-03-12T02:57:43.837Z,6.71
2023-03-12T03:00:15.098Z,6.71
2023-03-12T03:02:49.086Z,6.71
2023-03-12T03:05:47.742Z,6.70
2023-03-12T03:08:18.539Z,6.68
2023-03-12T03:10:49.860Z,6.65
2023-03-12T03:13:21.031Z,6.61
2023-03-12T03:16:02.093Z,6.57
2023-03-12T03:18:50.657Z,6.54
2023-03-12T03:21:23.155Z,6.50
2023-03-12T03:23:51.915Z,6.47
2023-03-12T03:26:33.981Z,6.45
2023-03-12T03:29:25.552Z,6.43
2023-03-12T03:32:33.909Z,6.41
2023-03-12T03:35:22.268Z,6.39
2023-03-12T03:38:02.365Z,6.36
2023-03-12T03:40:38.605Z,6.32
2023-03-12T03:43:16.597Z,6.30
2023-03-12T03:46:25.554Z,6.30
2023-03-12T03:49:23.096Z,6.27
2023-03-12T03:52:03.368Z,6.25
2023-03-12T03:55:11.712Z,6.23
2023-03-12T03:58:20.153Z,6.22
2023-03-12T04:01:28.649Z,6.21
2023-03-12T04:04:27.992Z,6.18
2023-03-12T04:06:56.791Z,6.16
2023-03-12T04:09:25.083Z,6.15
2023-03-12T04:12:33.575Z,6.14
2023-03-12T04:15:25.532Z,6.14
2023-03-12T04:17:57.050Z,6.15
2023-03-12T04:21:05.414Z,6.14
2023-03-12T04:23:57.078Z,6.15
2023-03-12T04:26:55.499Z,6.15
2023-03-12T04:29:56.004Z,6.15
2023-03-12T04:33:04.726Z,6.15
2023-03-12T04:35:44.582Z,6.13
2023-03-12T04:38:44.542Z,6.13
2023-03-12T04:41:15.222Z,6.11
2023-03-12T04:43:52.011Z,6.10
2023-03-12T04:46:42.828Z,6.09
2023-03-12T04:49:22.176Z,6.08
2023-03-12T04:52:13.761Z,6.06
2023-03-12T04:55:09.515Z,6.06
2023-03-12T04:57:43.340Z,6.04
2023-03-12T05:00:50.874Z,6.04
2023-03-12T05:03:38.974Z,6.03
2023-03-12T05:06:47.655Z,6.03
2023-03-12T05:09:27.746Z,6.03
2023-03-12T05:12:36.413Z,6.04
2023-03-12T05:15:13.476Z,6.03
2023-03-12T05:17:52.173Z,6.02
2023-03-12T05:21:00.553Z,6.03
2023-03-12T05:23:42.808Z,6.04
2023-03-12T05:26:51.577Z,6.04
2023-03-12T05:29:43.165Z,6.09
2023-03-12T05:32:36.901Z,6.16
2023-03-12T05:35:15.711Z,6.23
2023-03-12T05:38:06.617Z,6.29
2023-03-12T05:40:54.741Z,6.35
2023-03-12T05:43:49.291Z,6.41
2023-03-12T05:46:59.063Z,6.45
2023-03-12T05:49:38.757Z,6.50
2023-03-12T05:52:10.033Z,6.52
2023-03-12T05:54:51.460Z,6.55
2023-03-12T05:57:28.163Z,6.57
2023-03-12T05:59:56.333Z,6.59
2023-03-12T06:02:24.363Z,6.62
2023-03-12T06:04:58.727Z,6.65
2023-03-12T06:07:50.039Z,6.67
2023-03-12T06:10:21.100Z,6.68
2023-03-12T06:13:01.750Z,6.70
2023-03-12T06:15:43.443Z,6.71
2023-03-12T06:18:51.703Z,6.72
2023-03-12T06:21:50.171Z,6.73
2023-03-12T06:24:58.423Z,6.73
2023-03-12T06:27:26.349Z,6.75
2023-03-12T06:30:24.794Z,6.76
2023-03-12T06:33:14.837Z,6.78
2023-03-12T06:35:45.714Z,6.79
2023-03-12T06:38:42.758Z,6.80
2023-03-12T06:41:24.063Z,6.82
2023-03-12T06:43:52.417Z,6.85
2023-03-12T06:47:00.645Z,6.87
2023-03-12T06:49:38.255Z,6.90
2023-03-12T06:52:25.940Z,6.92
2023-03-12T06:54:54.235Z,6.95
2023-03-12T06:57:52.494Z,6.97
2023-03-12T07:01:01.033Z,7.01
2023-03-12T07:03:49.281Z,7.04
2023-03-12T07:06:26.659Z,7.08
2023-03-12T07:09:28.340Z,7.10
2023-03-12T07:12:36.490Z,7.15
2023-03-12T07:15:24.863Z,7.18
2023-03-12T07:18:05.997Z,7.21
2023-03-12T07:20:37.035Z,7.25
2023-03-12T07:23:14.020Z,7.28
2023-03-12T07:26:22.533Z,7.32
2023-03-12T07:29:10.880Z,7.36
2023-03-12T07:32:19.562Z,7.40
2023-03-12T07:34:48.010Z,7.45
2023-03-12T07:37:23.834Z,7.53
2023-03-12T07:40:19.704Z,7.59
2023-03-12T07:43:28.473Z,7.65
2023-03-12T07:46:16.842Z,7.73
2023-03-12T07:49:25.232Z,7.82
2023-03-12T07:52:25.979Z,7.96
2023-03-12T07:55:33.045Z,8.12
2023-03-12T07:58:33.949Z,8.29
2023-03-12T08:01:02.744Z,8.48
2023-03-12T08:04:11.404Z,8.64
2023-03-12T08:07:12.549Z,8.81
2023-03-12T08:10:21.189Z,8.94
2023-03-12T08:13:03.107Z,9.05
2023-03-12T08:16:11.580Z,9.10
2023-03-12T08:19:20.101Z,9.10
2023-03-12T08:21:52.202Z,9.09
2023-03-12T08:24:33.541Z,9.12
2023-03-12T08:27:14.845Z,9.20
2023-03-12T08:30:23.123Z,9.27
2023-03-12T08:33:24.120Z,9.31
2023-03-12T08:35:58.713Z,9.28
2023-03-12T08:38:29.640Z,9.32
2023-03-12T08:41:12.400Z,9.38
2023-03-12T08:43:48.171Z,9.44
2023-03-12T08:46:56.485Z,9.52
2023-03-12T08:49:56.097Z,9.56
2023-03-12T08:53:04.527Z,9.65
2023-03-12T08:55:52.653Z,9.73
2023-03-12T08:58:21.607Z,9.79
2023-03-12T09:01:11.058Z,9.84
2023-03-12T09:04:19.482Z,9.89
2023-03-12T09:06:52.738Z,9.98
2023-03-12T09:09:23.961Z,10.03
2023-03-12T09:12:22.913Z,10.13
2023-03-12T09:15:19.449Z,10.24
2023-03-12T09:18:25.940Z,10.27
2023-03-12T09:21:34.733Z,10.31
2023-03-12T09:24:43.032Z,10.35
2023-03-12T09:27:34.128Z,10.39
2023-03-12T09:30:06.918Z,10.41
2023-03-12T09:33:15.417Z,10.41
2023-03-12T09:36:15.795Z,10.46
2023-03-12T09:39:11.660Z,10.46
2023-03-12T09:42:02.799Z,10.49
2023-03-12T09:44:41.383Z,10.53
2023-03-12T09:47:39.602Z,10.57
2023-03-12T09:50:13.532Z,10.69
2023-03-12T09:53:27.803Z,10.77
2023-03-12T09:56:19.287Z,10.92
2023-03-12T09:59:01.285Z,11.01
2023-03-12T10:02:16.422Z,11.06
2023-03-12T10:05:13.606Z,11.12
2023-03-12T10:07:57.356Z,11.20
2023-03-12T10:11:05.693Z,11.29
2023-03-12T10:14:23.673Z,11.36
2023-03-12T10:17:48.602Z,11.41
2023-03-12T10:20:57.126Z,11.54
2023-03-12T10:24:17.889Z,11.67
2023-03-12T10:27:18.991Z,11.74
2023-03-12T10:30:28.417Z,11.77
2023-03-12T10:33:36.723Z,11.75
2023-03-12T10:36:52.056Z,11.77
2023-03-12T10:40:00.494Z,11.87
2023-03-12T10:43:12.336Z,11.92
2023-03-12T10:46:28.446Z,11.97
2023-03-12T10:49:35.274Z,12.12
2023-03-12T10:56:13.800Z,12.37
2023-03-12T10:59:28.608Z,12.46
2023-03-12T11:02:36.944Z,12.56
2023-03-12T11:05:40.689Z,12.66
2023-03-12T11:08:49.110Z,12.82
2023-03-12T11:11:47.525Z,12.94
2023-03-12T11:14:48.627Z,13.10
2023-03-12T11:17:59.770Z,13.19
2023-03-12T11:21:08.147Z,13.20
2023-03-12T11:24:16.595Z,13.33
2023-03-12T11:27:29.900Z,13.52
2023-03-12T11:30:38.888Z,13.64
2023-03-12T11:33:47.152Z,13.65
2023-03-12T11:36:54.233Z,13.64
2023-03-12T11:40:01.217Z,13.76
2023-03-12T11:43:08.008Z,13.78
2023-03-12T11:46:16.286Z,13.74
2023-03-12T11:49:24.770Z,13.79
2023-03-12T11:52:31.784Z,13.85
2023-03-12T11:55:40.864Z,13.87
2023-03-12T11:58:49.551Z,13.96
2023-03-12T12:02:13.523Z,13.99
2023-03-12T12:05:24.742Z,14.02
2023-03-12T12:08:31.920Z,14.01
2023-03-12T12:11:46.580Z,14.02
2023-03-12T12:14:44.062Z,13.99
2023-03-12T12:17:58.698Z,13.97
2023-03-12T12:21:07.157Z,13.92
2023-03-12T12:24:24.579Z,13.80
2023-03-12T12:27:45.411Z,13.59
2023-03-12T12:31:00.113Z,13.49
2023-03-12T12:34:14.986Z,13.51
2023-03-12T12:37:22.596Z,13.47
2023-03-12T12:40:31.031Z,13.42
2023-03-12T12:43:45.675Z,13.35
2023-03-12T12:46:57.140Z,13.38
2023-03-12T12:50:14.493Z,13.48
2023-03-12T12:53:15.304Z,13.58
2023-03-12T12:56:18.157Z,13.64
2023-03-12T12:59:26.522Z,13.71
2023-03-12T13:02:35.710Z,13.73
2023-03-12T13:05:44.473Z,13.73
2023-03-12T13:08:55.721Z,13.77
2023-03-12T13:11:56.935Z,13.77
2023-03-12T13:15:11.211Z,13.75
2023-03-12T13:18:25.922Z,13.73
2023-03-12T13:21:14.774Z,13.73
2023-03-12T13:24:23.536Z,13.78
2023-03-12T13:27:32.838Z,13.81
2023-03-12T13:30:31.485Z,13.87
2023-03-12T13:33:40.301Z,13.87
2023-03-12T13:36:17.736Z,13.89
2023-03-12T13:39:27.381Z,13.88
2023-03-12T13:41:56.833Z,13.85
2023-03-12T13:44:43.640Z,13.81
2023-03-12T13:47:14.482Z,13.81
2023-03-12T13:49:45.794Z,13.84
2023-03-12T13:52:57.199Z,13.87
2023-03-12T13:55:54.176Z,13.92
2023-03-12T13:59:02.632Z,13.98
2023-03-12T14:02:12.191Z,14.07
2023-03-12T14:05:20.592Z,14.16
2023-03-12T14:08:01.779Z,14.16
2023-03-12T14:11:12.794Z,14.11
2023-03-12T14:14:24.655Z,14.06
2023-03-12T14:17:19.258Z,14.00
2023-03-12T14:20:28.004Z,13.88
2023-03-12T14:23:36.732Z,13.80
2023-03-12T14:26:45.335Z,13.71
2023-03-12T14:30:05.951Z,13.61
2023-03-12T14:33:14.279Z,13.57
2023-03-12T14:35:50.820Z,13.63
2023-03-12T14:38:55.113Z,13.67
2023-03-12T14:41:56.066Z,13.72
2023-03-12T14:45:05.531Z,13.73
2023-03-12T14:48:23.049Z,13.73
2023-03-12T14:50:54.453Z,13.73
2023-03-12T14:53:36.968Z,13.77
2023-03-12T14:56:23.682Z,13.85
2023-03-12T14:59:07.386Z,13.94
2023-03-12T15:01:48.493Z,13.90
2023-03-12T15:04:52.934Z,13.82
2023-03-12T15:07:35.477Z,13.65
2023-03-12T15:10:15.397Z,13.56
2023-03-12T15:13:08.366Z,13.47
2023-03-12T15:15:46.353Z,13.38
2023-03-12T15:18:46.571Z,13.27
2023-03-12T15:21:45.025Z,13.15
2023-03-12T15:24:14.031Z,13.07
2023-03-12T15:26:44.009Z,13.02
2023-03-12T15:29:28.864Z,12.99
2023-03-12T15:31:59.249Z,12.96
2023-03-12T15:34:39.180Z,12.94
2023-03-12T15:37:29.743Z,12.98
2023-03-12T15:39:59.225Z,13.04
2023-03-12T15:42:46.476Z,13.12
2023-03-12T15:45:22.328Z,13.18
2023-03-12T15:47:52.080Z,13.14
2023-03-12T15:50:22.947Z,13.06
2023-03-12T15:53:03.534Z,13.00
2023-03-12T15:55:33.129Z,12.96
2023-03-12T15:58:02.214Z,12.94
2023-03-12T16:00:45.128Z,12.90
2023-03-12T16:03:20.817Z,12.83
2023-03-12T16:05:51.753Z,12.75
2023-03-12T16:08:29.815Z,12.68
2023-03-12T16:10:57.812Z,12.63
2023-03-12T16:13:28.767Z,12.59
2023-03-12T16:16:06.260Z,12.57
2023-03-12T16:18:47.484Z,12.55
2023-03-12T16:21:15.347Z,12.52
2023-03-12T16:23:43.140Z,12.46
2023-03-12T16:26:11.808Z,12.40
2023-03-12T16:28:40.399Z,12.35
2023-03-12T16:31:15.421Z,12.29
2023-03-12T16:33:44.123Z,12.22
2023-03-12T16:36:14.002Z,12.15
2023-03-12T16:38:42.466Z,12.07
2023-03-12T16:41:13.231Z,12.02
2023-03-12T16:43:42.202Z,11.96
2023-03-12T16:46:11.045Z,11.91
2023-03-12T16:48:39.079Z,11.85
2023-03-12T16:51:12.755Z,11.78
2023-03-12T16:53:40.699Z,11.72
2023-03-12T16:56:16.575Z,11.68
2023-03-12T16:58:44.747Z,11.64
2023-03-12T17:01:13.877Z,11.61
2023-03-12T17:03:43.966Z,11.59
2023-03-12T17:06:40.867Z,11.55
2023-03-12T17:09:08.985Z,11.49
2023-03-12T17:11:38.137Z,11.44
2023-03-12T17:14:15.275Z,11.39
2023-03-12T17:16:54.023Z,11.34
2023-03-12T17:19:22.159Z,11.30
2023-03-12T17:21:50.036Z,11.25
2023-03-12T17:24:18.747Z,11.20
2023-03-12T17:26:46.985Z,11.18
2023-03-12T17:29:14.809Z,11.15
2023-03-12T17:31:42.605Z,11.11
2023-03-12T17:34:10.533Z,11.09
2023-03-12T17:37:04.287Z,11.05
2023-03-12T17:39:32.344Z,11.01
2023-03-12T17:42:03.977Z,10.98
2023-03-12T17:44:47.183Z,10.95
2023-03-12T17:47:35.788Z,10.94
2023-03-12T17:50:04.645Z,10.92
2023-03-12T17:52:38.529Z,10.91
2023-03-12T17:55:07.578Z,10.90
2023-03-12T17:57:51.800Z,10.88
2023-03-12T18:00:22.100Z,10.86
2023-03-12T18:02:50.678Z,10.83
2023-03-12T18:05:18.707Z,10.80
2023-03-12T18:07:50.463Z,10.78
2023-03-12T18:10:18.576Z,10.76
2023-03-12T18:12:47.664Z,10.73
2023-03-12T18:15:17.001Z,10.70
2023-03-12T18:17:45.210Z,10.68
2023-03-12T18:20:19.564Z,10.64
2023-03-12T18:22:52.074Z,10.61
2023-03-12T18:25:23.109Z,10.57
2023-03-12T18:27:50.984Z,10.53
2023-03-12T18:30:21.712Z,10.50
2023-03-12T18:37:10.122Z,10.43
2023-03-12T18:39:37.961Z,10.40
2023-03-12T18:42:05.827Z,10.38
2023-03-12T18:44:59.154Z,10.36
2023-03-12T18:47:27.040Z,10.33
2023-03-12T18:49:55.958Z,10.32
2023-03-12T18:52:24.066Z,10.31
2023-03-12T18:54:52.513Z,10.29
2023-03-12T18:57:20.218Z,10.27
2023-03-12T18:59:49.745Z,10.25
2023-03-12T19:02:17.685Z,10.22
2023-03-12T19:04:56.342Z,10.20
2023-03-12T19:07:24.544Z,10.18
2023-03-12T19:09:56.014Z,10.17
2023-03-12T19:12:42.283Z,10.14
2023-03-12T19:15:24.811Z,10.11
2023-03-12T19:17:54.477Z,10.09
2023-03-12T19:20:48.941Z,10.07
2023-03-12T19:23:16.914Z,10.05
2023-03-12T19:25:44.742Z,10.06
2023-03-12T19:28:12.759Z,10.07
2023-03-12T19:30:41.102Z,10.08
2023-03-12T19:33:09.435Z,10.07
2023-03-12T19:35:39.479Z,10.07
2023-03-12T19:38:08.403Z,10.07
2023-03-12T19:40:36.496Z,10.05
2023-03-12T19:43:05.115Z,10.05
2023-03-12T19:45:33.369Z,10.04
2023-03-12T19:48:03.531Z,10.03
2023-03-12T19:50:31.461Z,10.03
2023-03-12T19:53:10.325Z,10.02
2023-03-12T19:55:38.371Z,10.02
2023-03-12T19:58:06.445Z,10.02
2023-03-12T20:00:56.172Z,10.02
2023-03-12T20:03:24.515Z,10.03
2023-03-12T20:05:52.608Z,10.04
2023-03-12T20:08:22.645Z,10.04
2023-03-12T20:10:50.825Z,10.04
2023-03-12T20:13:19.000Z,10.05
2023-03-12T20:15:54.031Z,10.05
2023-03-12T20:18:31.110Z,10.06
2023-03-12T20:21:04.419Z,10.07
2023-03-12T20:23:33.094Z,10.08
2023-03-12T20:26:01.219Z,10.10
2023-03-12T20:28:29.477Z,10.12
2023-03-12T20:31:08.122Z,10.12
2023-03-12T20:33:38.683Z,10.13
2023-03-12T20:36:07.890Z,10.15
2023-03-12T20:38:36.117Z,10.15
2023-03-12T20:41:04.651Z,10.15
2023-03-12T20:43:32.473Z,10.15
2023-03-12T20:46:00.282Z,10.14
2023-03-12T20:48:30.477Z,10.14
2023-03-12T20:51:25.674Z,10.14
2023-03-12T20:53:53.471Z,10.13
2023-03-12T20:56:21.422Z,10.13
2023-03-12T20:58:49.332Z,10.13
2023-03-12T21:01:17.348Z,10.13
2023-03-12T21:03:46.081Z,10.12
2023-03-12T21:06:14.357Z,10.11
2023-03-12T21:15:44.837Z,10.15
2023-03-12T21:18:13.223Z,10.15
2023-03-12T21:21:25.614Z,10.15
2023-03-12T21:23:53.777Z,10.16
2023-03-12T21:26:22.170Z,10.16
2023-03-12T21:28:56.263Z,10.17
2023-03-12T21:31:24.385Z,10.17
2023-03-12T21:33:54.164Z,10.17
2023-03-12T21:36:21.993Z,10.18
2023-03-12T21:38:52.009Z,10.19
2023-03-12T21:41:20.878Z,10.20
2023-03-12T21:43:49.016Z,10.21
2023-03-12T21:46:19.084Z,10.23
2023-03-12T21:48:48.493Z,10.25
2023-03-12T21:51:17.642Z,10.26
2023-03-12T21:53:45.484Z,10.26
2023-03-12T21:56:14.689Z,10.26
2023-03-12T21:58:42.830Z,10.27
2023-03-12T22:01:17.423Z,10.28
2023-03-12T22:03:47.759Z,10.29
2023-03-12T22:06:16.353Z,10.31
2023-03-12T22:08:45.365Z,10.32
2023-03-12T22:11:14.144Z,10.34
2023-03-12T22:13:43.226Z,10.36
2023-03-12T22:16:12.881Z,10.38
2023-03-12T22:18:43.135Z,10.38
2023-03-12T22:21:18.178Z,10.40
2023-03-12T22:23:51.261Z,10.40
2023-03-12T22:26:20.057Z,10.43
2023-03-12T22:28:50.779Z,10.45
2023-03-12T22:31:20.102Z,10.48
2023-03-12T22:33:48.473Z,10.50
2023-03-12T22:36:17.339Z,10.54
2023-03-12T22:38:47.153Z,10.57
2023-03-12T22:41:25.671Z,10.59
2023-03-12T22:43:55.833Z,10.64
2023-03-12T22:46:25.152Z,10.68
2023-03-12T22:48:54.290Z,10.72
2023-03-12T22:51:22.872Z,10.76
2023-03-12T22:53:51.198Z,10.79
2023-03-12T22:56:19.021Z,10.84
2023-03-12T22:58:47.217Z,10.87
2023-03-12T23:01:16.483Z,10.90
2023-03-12T23:03:44.873Z,10.92
2023-03-12T23:06:18.439Z,10.94
2023-03-12T23:08:48.053Z,10.96
2023-03-12T23:11:16.372Z,10.97
2023-03-12T23:13:46.065Z,10.98
2023-03-12T23:16:15.457Z,11.00
2023-03-12T23:18:43.664Z,11.01
2023-03-12T23:21:13.470Z,11.04
2023-03-12T23:23:43.602Z,11.07
2023-03-12T23:26:19.041Z,11.10
2023-03-12T23:28:47.597Z,11.14
2023-03-12T23:31:16.256Z,11.16
2023-03-12T23:33:44.592Z,11.19
2023-03-12T23:36:14.263Z,11.21
2023-03-12T23:38:42.055Z,11.24
2023-03-12T23:41:16.030Z,11.25
2023-03-12T23:43:44.198Z,11.27
2023-03-12T23:46:13.612Z,11.28
2023-03-12T23:48:41.441Z,11.29
2023-03-12T23:51:10.927Z,11.31
2023-03-12T23:53:39.505Z,11.33
2023-03-12T23:56:09.013Z,11.34
2023-03-12T23:58:37.178Z,11.35
